Time;durP1;ratioP1;P1;durP2;ratioP2;P2;SDS_P1;SDS_P2;PMS_P1;PMS_P2;Temp;Humidity;BMP_temperature;BMP_pressure;BME280_temperature;BME280_humidity;BME280_pressure;Samples;Min_cycle;Max_cycle;Signal;HPM_P1;HPM_P2
2021/06/23 00:00:06;;;;;;;;;;;;;;;21.06;46.05;102127.53;2190709;39;113700;-53
2021/06/23 00:01:38;;;;;;;;;;;;;;;21.07;45.54;102125.56;2189269;39;113808;-54
2021/06/23 00:03:10;;;;;;;;;;;;;;;21.05;45.71;102123.03;2196040;39;114400;-54
2021/06/23 00:04:43;;;;;;;;;;;;;;;21.04;45.70;102112.06;2189088;39;113737;-53
2021/06/23 00:06:14;;;;;;;;;;;;;;;21.03;45.91;102108.41;2196729;39;113708;-53
2021/06/23 00:07:46;;;;;;;;;;;;;;;21.04;46.02;102114.88;2198394;39;114258;-54
2021/06/23 00:09:18;;;;;;;;;;;;;;;21.05;45.81;102119.38;2197318;39;113792;-54
2021/06/23 00:10:51;;;;;;;;;;;;;;;21.03;45.70;102116.84;2197873;39;113788;-54
2021/06/23 00:12:23;;;;;;;;;;;;;;;21.03;45.68;102119.66;2198194;39;114512;-53
2021/06/23 00:13:55;;;;;;;;;;;;;;;21.00;45.90;102117.41;2191587;39;114247;-54
2021/06/23 00:15:27;;;;;;;;;;;;;;;21.01;46.19;102119.09;2189790;39;113703;-53
2021/06/23 00:16:59;;;;;;;;;;;;;;;21.01;46.08;102118.25;2189885;39;114105;-53
2021/06/23 00:18:31;;;;;;;;;;;;;;;21.02;45.96;102125.56;2198791;39;113777;-53
2021/06/23 00:20:04;;;;;;;;;;;;;;;21.01;46.19;102121.06;2197899;39;114797;-53
2021/06/23 00:21:36;;;;;;;;;;;;;;;21.02;46.03;102122.75;2194931;39;114844;-53
2021/06/23 00:23:08;;;;;;;;;;;;;;;21.01;46.34;102121.91;2197732;39;114902;-53
2021/06/23 00:24:40;;;;;;;;;;;;;;;21.00;45.91;102120.22;2190097;39;115683;-53
2021/06/23 00:26:12;;;;;;;;;;;;;;;21.01;45.91;102121.06;2194566;39;116106;-53
2021/06/23 00:27:44;;;;;;;;;;;;;;;21.01;46.35;102118.25;2196759;39;115010;-54
2021/06/23 00:29:16;;;;;;;;;;;;;;;21.00;46.05;102106.19;2198302;39;115084;-54
2021/06/23 00:30:48;;;;;;;;;;;;;;;20.99;46.25;102112.91;2197582;39;114791;-54
2021/06/23 00:32:20;;;;;;;;;;;;;;;20.99;46.13;102117.69;2187918;39;115198;-53
2021/06/23 00:33:52;;;;;;;;;;;;;;;20.99;46.10;102118.53;2193424;39;113858;-53
2021/06/23 00:35:24;;;;;;;;;;;;;;;20.99;46.23;102114.88;2198595;39;114799;-54
2021/06/23 00:36:56;;;;;;;;;;;;;;;20.98;46.07;102113.22;2198270;39;114815;-53
2021/06/23 00:38:28;;;;;;;;;;;;;;;20.97;46.27;102119.97;2192599;39;114930;-54
2021/06/23 00:40:00;;;;;;;;;;;;;;;20.97;46.08;102118.00;2200569;39;115239;-53
2021/06/23 00:41:34;;;;;;;;;;;;;;;20.98;46.17;102118.84;2199792;39;115866;-54
2021/06/23 00:43:05;;;;;;;;;;;;;;;20.97;46.15;102112.38;2193406;39;115427;-53
2021/06/23 00:44:39;;;;;;;;;;;;;;;20.97;46.00;102114.34;2199401;39;115977;-53
2021/06/23 00:46:11;;;;;;;;;;;;;;;20.97;46.07;102118.00;2200621;39;115632;-54
2021/06/23 00:48:00;;;;;;;;;;;;;;;20.96;46.12;102109.84;2200350;39;116142;-53
2021/06/23 00:49:33;;;;;;;;;;;;;;;20.95;46.35;102113.75;2195663;39;114539;-53
2021/06/23 00:51:05;;;;;;;;;;;;;;;20.95;45.95;102108.16;2200053;39;114705;-53
2021/06/23 00:52:37;;;;;;;;;;;;;;;20.94;45.83;102109.28;2193202;39;115703;-54
2021/06/23 00:54:11;;;;;;;;;;;;;;;20.93;46.12;102104.78;2191528;39;115546;-55
2021/06/23 00:55:42;;;;;;;;;;;;;;;20.93;46.10;102110.41;2191741;39;114743;-54
2021/06/23 00:57:14;;;;;;;;;;;;;;;20.91;45.98;102107.88;2197925;39;115443;-54
2021/06/23 00:58:47;;;;;;;;;;;;;;;20.92;46.23;102111.53;2204326;39;115527;-55
2021/06/23 01:00:20;;;;;;;;;;;;;;;20.92;46.05;102114.34;2192076;39;115410;-54
2021/06/23 01:01:54;;;;;;;;;;;;;;;20.91;46.45;102121.94;2197543;39;116117;-53
2021/06/23 01:03:26;;;;;;;;;;;;;;;20.89;46.21;102123.34;2196652;39;114241;-53
2021/06/23 01:04:58;;;;;;;;;;;;;;;20.93;46.21;102119.69;2197911;39;113677;-54
2021/06/23 01:06:31;;;;;;;;;;;;;;;20.90;46.24;102120.22;2200621;39;113626;-54
2021/06/23 01:08:04;;;;;;;;;;;;;;;20.90;46.06;102109.00;2197463;39;113752;-53
2021/06/23 01:09:36;;;;;;;;;;;;;;;20.90;46.23;102111.81;2200404;39;113653;-54
2021/06/23 01:11:08;;;;;;;;;;;;;;;20.88;46.35;102116.88;2201519;39;113934;-53
2021/06/23 01:12:40;;;;;;;;;;;;;;;20.88;46.39;102110.41;2202322;39;113431;-54
2021/06/23 01:14:12;;;;;;;;;;;;;;;20.89;46.45;102121.38;2200611;39;114067;-53
2021/06/23 01:15:47;;;;;;;;;;;;;;;20.90;46.43;102120.22;2186713;39;113980;-53
2021/06/23 01:17:20;;;;;;;;;;;;;;;20.88;46.11;102116.03;2193723;39;113585;-54
2021/06/23 01:18:52;;;;;;;;;;;;;;;20.87;45.95;102112.38;2199095;39;113992;-54
2021/06/23 01:20:24;;;;;;;;;;;;;;;20.88;46.00;102124.47;2205938;39;114244;-54
2021/06/23 01:21:57;;;;;;;;;;;;;;;20.87;46.31;102120.81;2206401;39;113750;-54
2021/06/23 01:23:29;;;;;;;;;;;;;;;20.85;46.00;102126.69;2203552;39;113815;-54
2021/06/23 01:25:03;;;;;;;;;;;;;;;20.84;46.27;102116.63;2200336;39;113887;-54
2021/06/23 01:26:35;;;;;;;;;;;;;;;20.83;46.06;102117.72;2199947;39;114946;-54
2021/06/23 01:28:07;;;;;;;;;;;;;;;20.84;46.00;102116.63;2197332;39;113880;-54
2021/06/23 01:29:40;;;;;;;;;;;;;;;20.82;45.84;102121.66;2191252;39;114429;-55
2021/06/23 01:31:14;;;;;;;;;;;;;;;20.82;46.34;102110.41;2190601;39;114842;-57
2021/06/23 01:32:46;;;;;;;;;;;;;;;20.82;46.10;102112.38;2197056;39;114155;-54
2021/06/23 01:34:18;;;;;;;;;;;;;;;20.82;46.28;102118.00;2197011;39;114846;-54
2021/06/23 01:35:51;;;;;;;;;;;;;;;20.82;46.07;102115.19;2195804;39;114861;-54
2021/06/23 01:37:23;;;;;;;;;;;;;;;20.80;45.99;102106.22;2190712;39;115108;-54
2021/06/23 01:38:54;;;;;;;;;;;;;;;20.81;46.07;102105.06;2197590;39;114763;-55
2021/06/23 01:40:26;;;;;;;;;;;;;;;20.81;45.91;102107.88;2197391;39;114838;-54
2021/06/23 01:41:59;;;;;;;;;;;;;;;20.80;46.21;102106.22;2198275;39;115236;-55
2021/06/23 01:43:34;;;;;;;;;;;;;;;20.80;45.89;102111.84;2195824;39;114746;-54
2021/06/23 01:45:06;;;;;;;;;;;;;;;20.79;46.21;102105.38;2199760;39;115363;-54
2021/06/23 01:46:38;;;;;;;;;;;;;;;20.78;46.00;102109.31;2190370;39;114750;-54
2021/06/23 01:48:10;;;;;;;;;;;;;;;20.77;46.25;102109.56;2195044;39;116278;-54
2021/06/23 01:49:42;;;;;;;;;;;;;;;20.77;46.10;102106.75;2189350;39;115054;-56
2021/06/23 01:51:14;;;;;;;;;;;;;;;20.76;46.53;102107.88;2194949;39;115860;-54
2021/06/23 01:52:46;;;;;;;;;;;;;;;20.75;46.24;102101.44;2196885;39;115485;-54
2021/06/23 01:54:18;;;;;;;;;;;;;;;20.76;46.32;102096.66;2198202;39;115600;-54
2021/06/23 01:55:50;;;;;;;;;;;;;;;20.76;46.40;102114.34;2196401;39;115616;-54
2021/06/23 01:57:22;;;;;;;;;;;;;;;20.75;46.45;102101.44;2193292;39;115636;-55
2021/06/23 01:58:54;;;;;;;;;;;;;;;20.77;46.20;102104.81;2200240;39;116028;-54
2021/06/23 02:00:29;;;;;;;;;;;;;;;20.76;46.16;102105.06;2188983;39;115542;-54
2021/06/23 02:02:02;;;;;;;;;;;;;;;20.75;46.22;102106.22;2187813;39;116191;-54
2021/06/23 02:03:37;;;;;;;;;;;;;;;20.76;46.46;102105.91;2198535;39;115341;-54
2021/06/23 02:05:12;;;;;;;;;;;;;;;20.76;46.39;102107.88;2197476;39;115433;-54
2021/06/23 02:06:47;;;;;;;;;;;;;;;20.75;46.40;102106.22;2195957;39;115497;-54
2021/06/23 02:08:22;;;;;;;;;;;;;;;20.74;46.47;102105.38;2199216;39;116004;-55
2021/06/23 02:09:57;;;;;;;;;;;;;;;20.74;46.29;102102.56;2196731;39;113591;-54
2021/06/23 02:11:33;;;;;;;;;;;;;;;20.74;46.19;102105.38;2199181;39;113698;-54
2021/06/23 02:13:08;;;;;;;;;;;;;;;20.72;46.16;102107.59;2199198;39;113569;-54
2021/06/23 02:14:40;;;;;;;;;;;;;;;20.72;46.27;102109.56;2196040;39;113899;-54
2021/06/23 02:16:12;;;;;;;;;;;;;;;20.72;46.38;102104.81;2192576;39;114333;-54
2021/06/23 02:17:45;;;;;;;;;;;;;;;20.71;46.19;102114.38;2185536;39;113665;-54
2021/06/23 02:19:17;;;;;;;;;;;;;;;20.70;46.21;102109.03;2194581;39;113967;-54
2021/06/23 02:20:52;;;;;;;;;;;;;;;20.71;46.24;102105.09;2198591;39;113774;-54
2021/06/23 02:22:25;;;;;;;;;;;;;;;20.70;46.48;102112.69;2190464;39;113721;-54
2021/06/23 02:23:59;;;;;;;;;;;;;;;20.70;46.49;102107.06;2184051;39;113905;-54
2021/06/23 02:25:31;;;;;;;;;;;;;;;20.69;46.22;102108.19;2190345;39;113992;-54
2021/06/23 02:27:03;;;;;;;;;;;;;;;20.69;46.23;102118.56;2185888;39;113706;-54
2021/06/23 02:28:35;;;;;;;;;;;;;;;20.69;46.30;102112.94;2192866;39;113780;-54
2021/06/23 02:30:08;;;;;;;;;;;;;;;20.68;46.13;102112.09;2200175;39;114235;-54
2021/06/23 02:31:41;;;;;;;;;;;;;;;20.68;46.42;102117.72;2183098;39;115185;-54
2021/06/23 02:33:12;;;;;;;;;;;;;;;20.68;46.20;102114.91;2183785;39;114890;-55
2021/06/23 02:34:47;;;;;;;;;;;;;;;20.68;46.11;102108.44;2187503;39;114765;-54
2021/06/23 02:36:19;;;;;;;;;;;;;;;20.67;46.43;102113.22;2191790;39;114838;-54
2021/06/23 02:37:51;;;;;;;;;;;;;;;20.66;46.38;102110.72;2198114;39;114859;-54
2021/06/23 02:39:23;;;;;;;;;;;;;;;20.65;46.38;102120.25;2198627;39;115286;-54
2021/06/23 02:40:55;;;;;;;;;;;;;;;20.64;46.30;102113.78;2194760;39;114817;-54
2021/06/23 02:42:28;;;;;;;;;;;;;;;20.64;46.08;102111.00;2191005;39;115196;-54
2021/06/23 02:44:00;;;;;;;;;;;;;;;20.64;46.29;102112.94;2194924;39;115379;-54
2021/06/23 02:45:32;;;;;;;;;;;;;;;20.64;46.31;102116.59;2195917;39;114830;-54
2021/06/23 02:47:04;;;;;;;;;;;;;;;20.64;46.46;102115.75;2189619;39;113978;-54
2021/06/23 02:48:37;;;;;;;;;;;;;;;20.64;46.24;102116.59;2189794;39;114666;-54
2021/06/23 02:50:09;;;;;;;;;;;;;;;20.63;46.32;102117.72;2183948;39;114905;-54
2021/06/23 02:51:41;;;;;;;;;;;;;;;20.64;46.52;102115.75;2194238;39;114899;-53
2021/06/23 02:53:14;;;;;;;;;;;;;;;20.62;46.57;102113.25;2195381;39;115493;-54
2021/06/23 02:54:46;;;;;;;;;;;;;;;20.64;46.24;102107.34;2188883;39;115601;-54
2021/06/23 02:56:19;;;;;;;;;;;;;;;20.62;46.39;102116.06;2194048;39;114579;-54
2021/06/23 02:57:52;;;;;;;;;;;;;;;20.61;46.38;102111.56;2190808;39;115495;-54
2021/06/23 02:59:24;;;;;;;;;;;;;;;20.60;46.27;102112.69;2194153;39;116110;-54
2021/06/23 03:00:56;;;;;;;;;;;;;;;20.60;46.77;102111.84;2194699;39;114498;-55
2021/06/23 03:02:28;;;;;;;;;;;;;;;20.60;46.28;102117.44;2196631;39;115325;-54
2021/06/23 03:04:00;;;;;;;;;;;;;;;20.59;46.16;102118.56;2198896;39;115511;-54
2021/06/23 03:05:32;;;;;;;;;;;;;;;20.58;46.46;102122.53;2188367;39;115505;-54
2021/06/23 03:07:07;;;;;;;;;;;;;;;20.58;46.20;102116.91;2193169;39;115740;-54
2021/06/23 03:08:39;;;;;;;;;;;;;;;20.56;46.61;102119.97;2198451;39;115430;-54
2021/06/23 03:10:12;;;;;;;;;;;;;;;20.57;46.64;102123.63;2194103;39;114550;-55
2021/06/23 03:11:45;;;;;;;;;;;;;;;20.55;46.25;102115.47;2190321;39;115617;-54
2021/06/23 03:13:17;;;;;;;;;;;;;;;20.56;46.39;102119.13;2196437;39;115871;-54
2021/06/23 03:14:49;;;;;;;;;;;;;;;20.55;46.40;102115.47;2188796;39;113782;-54
2021/06/23 03:16:21;;;;;;;;;;;;;;;20.56;46.60;102121.94;2188681;39;113797;-53
2021/06/23 03:17:53;;;;;;;;;;;;;;;20.54;46.37;102115.75;2192815;39;113917;-54
2021/06/23 03:19:25;;;;;;;;;;;;;;;20.53;46.56;102123.34;2193279;39;113966;-54
2021/06/23 03:20:56;;;;;;;;;;;;;;;20.53;46.64;102126.16;2188548;39;113989;-54
2021/06/23 03:22:28;;;;;;;;;;;;;;;20.54;46.59;102125.00;2188717;39;114083;-54
2021/06/23 03:24:00;;;;;;;;;;;;;;;20.52;46.49;102121.66;2190889;39;114733;-55
2021/06/23 03:25:32;;;;;;;;;;;;;;;20.52;46.57;102121.66;2182900;39;113905;-54
2021/06/23 03:27:05;;;;;;;;;;;;;;;20.51;46.22;102125.59;2187065;39;114322;-54
2021/06/23 03:28:36;;;;;;;;;;;;;;;20.51;46.43;102121.94;2189923;39;113770;-54
2021/06/23 03:30:09;;;;;;;;;;;;;;;20.50;46.56;102121.09;2191074;39;114300;-54
2021/06/23 03:31:40;;;;;;;;;;;;;;;20.51;46.57;102125.59;2189805;39;114015;-54
2021/06/23 03:33:12;;;;;;;;;;;;;;;20.51;46.17;102133.16;2189109;39;114251;-54
2021/06/23 03:34:44;;;;;;;;;;;;;;;20.49;46.63;102127.81;2182673;39;114137;-54
2021/06/23 03:36:16;;;;;;;;;;;;;;;20.49;46.25;102125.00;2192811;39;113852;-54
2021/06/23 03:37:49;;;;;;;;;;;;;;;20.49;46.47;102127.81;2189908;39;115636;-54
2021/06/23 03:39:20;;;;;;;;;;;;;;;20.47;46.72;102132.88;2182943;39;114913;-54
2021/06/23 03:40:52;;;;;;;;;;;;;;;20.47;46.65;102135.69;2187797;39;115059;-54
2021/06/23 03:42:24;;;;;;;;;;;;;;;20.47;46.57;102134.84;2189462;39;114770;-53
2021/06/23 03:43:55;;;;;;;;;;;;;;;20.46;46.73;102130.34;2190362;39;115004;-54
2021/06/23 03:45:27;;;;;;;;;;;;;;;20.45;47.05;102128.66;2188748;39;114822;-54
2021/06/23 03:47:01;;;;;;;;;;;;;;;20.46;46.82;102130.34;2188990;39;114961;-54
2021/06/23 03:48:33;;;;;;;;;;;;;;;20.45;46.54;102131.47;2188708;39;114641;-56
2021/06/23 03:50:05;;;;;;;;;;;;;;;20.45;46.89;102131.47;2189267;39;115305;-55
2021/06/23 03:51:37;;;;;;;;;;;;;;;20.44;46.74;102130.66;2189183;39;114956;-54
2021/06/23 03:53:09;;;;;;;;;;;;;;;20.44;46.98;102127.00;2181594;39;114836;-54
2021/06/23 03:54:40;;;;;;;;;;;;;;;20.45;46.81;102132.31;2186701;39;115912;-54
2021/06/23 03:56:12;;;;;;;;;;;;;;;20.44;46.87;102124.19;2188984;39;114036;-54
2021/06/23 03:57:44;;;;;;;;;;;;;;;20.44;46.78;102132.59;2193077;39;115528;-54
2021/06/23 03:59:15;;;;;;;;;;;;;;;20.43;46.91;102134.56;2189519;39;115994;-54
2021/06/23 04:00:47;;;;;;;;;;;;;;;20.41;46.84;102140.44;2190273;39;116122;-54
2021/06/23 04:02:19;;;;;;;;;;;;;;;20.42;46.70;102132.88;2189985;39;116070;-54
2021/06/23 04:03:52;;;;;;;;;;;;;;;20.40;46.94;102133.16;2181212;39;116125;-54
2021/06/23 04:05:23;;;;;;;;;;;;;;;20.41;46.70;102134.00;2183096;39;115744;-54
2021/06/23 04:06:55;;;;;;;;;;;;;;;20.41;46.79;102139.59;2181560;39;115741;-54
2021/06/23 04:08:27;;;;;;;;;;;;;;;20.40;46.47;102137.91;2186933;39;115965;-54
2021/06/23 04:09:58;;;;;;;;;;;;;;;20.39;46.71;102139.06;2189299;39;116661;-54
2021/06/23 04:11:31;;;;;;;;;;;;;;;20.39;46.56;102141.88;2189843;39;115795;-54
2021/06/23 04:13:03;;;;;;;;;;;;;;;20.38;46.92;102135.41;2183292;39;115987;-54
2021/06/23 04:14:35;;;;;;;;;;;;;;;20.40;46.73;102140.72;2187805;39;115530;-54
2021/06/23 04:16:06;;;;;;;;;;;;;;;20.38;47.03;102134.56;2181477;39;115696;-54
2021/06/23 04:17:40;;;;;;;;;;;;;;;20.38;46.85;102138.22;2187411;39;114723;-55
2021/06/23 04:19:12;;;;;;;;;;;;;;;20.37;46.85;102142.13;2191542;39;115640;-54
2021/06/23 04:20:43;;;;;;;;;;;;;;;20.36;46.83;102139.59;2188934;39;115487;-54
2021/06/23 04:22:15;;;;;;;;;;;;;;;20.36;46.46;102145.22;2189023;39;114394;-54
2021/06/23 04:23:47;;;;;;;;;;;;;;;20.36;46.50;102134.81;2177931;39;114218;-54
2021/06/23 04:25:18;;;;;;;;;;;;;;;20.34;46.72;102137.09;2186111;39;114398;-54
2021/06/23 04:26:50;;;;;;;;;;;;;;;20.37;46.55;102141.28;2188548;39;113900;-54
2021/06/23 04:28:22;;;;;;;;;;;;;;;20.33;46.50;102134.53;2192861;39;113845;-54
2021/06/23 04:29:54;;;;;;;;;;;;;;;20.35;46.76;102140.75;2183625;39;113953;-54
2021/06/23 04:31:25;;;;;;;;;;;;;;;20.33;46.59;102141.00;2188665;39;114092;-54
2021/06/23 04:32:57;;;;;;;;;;;;;;;20.33;46.85;102142.97;2190290;39;114009;-54
2021/06/23 04:34:28;;;;;;;;;;;;;;;20.35;46.90;102146.34;2189655;39;114235;-54
2021/06/23 04:36:00;;;;;;;;;;;;;;;20.34;47.26;102145.50;2189589;39;113899;-54
2021/06/23 04:37:35;;;;;;;;;;;;;;;20.35;47.27;102143.56;2189318;39;114120;-54
2021/06/23 04:39:07;;;;;;;;;;;;;;;20.39;47.67;102141.88;2181527;39;114474;-54
2021/06/23 04:40:40;;;;;;;;;;;;;;;20.39;47.85;102145.53;2191061;39;114580;-54
2021/06/23 04:42:12;;;;;;;;;;;;;;;20.41;47.62;102148.88;2184777;39;114559;-54
2021/06/23 04:43:44;;;;;;;;;;;;;;;20.43;47.83;102151.41;2188624;39;115326;-54
2021/06/23 04:45:16;;;;;;;;;;;;;;;20.45;48.05;102146.34;2189340;39;114923;-53
2021/06/23 04:46:48;;;;;;;;;;;;;;;20.45;48.25;102146.34;2193324;39;113890;-54
2021/06/23 04:48:20;;;;;;;;;;;;;;;20.46;48.49;102153.66;2189507;39;115133;-54
2021/06/23 04:49:51;;;;;;;;;;;;;;;20.48;48.49;102145.81;2182682;39;115009;-54
2021/06/23 04:51:23;;;;;;;;;;;;;;;20.50;48.69;102160.41;2183546;39;115171;-54
2021/06/23 04:52:55;;;;;;;;;;;;;;;20.52;48.83;102158.16;2187281;39;114963;-54
2021/06/23 04:54:26;;;;;;;;;;;;;;;20.55;48.78;102151.13;2181881;39;114877;-54
2021/06/23 04:55:59;;;;;;;;;;;;;;;20.57;49.04;102160.97;2180566;39;114098;-54
2021/06/23 04:57:31;;;;;;;;;;;;;;;20.60;48.90;102153.94;2180187;39;115399;-54
2021/06/23 04:59:02;;;;;;;;;;;;;;;20.64;48.91;102160.69;2186366;39;114376;-54
2021/06/23 05:00:34;;;;;;;;;;;;;;;20.67;48.48;102158.16;2185415;39;115141;-55
2021/06/23 05:02:09;;;;;;;;;;;;;;;20.70;49.13;102160.44;2199927;39;115018;-54
2021/06/23 05:03:41;;;;;;;;;;;;;;;20.73;49.07;102167.44;2191869;39;115564;-54
2021/06/23 05:05:12;;;;;;;;;;;;;;;20.76;49.02;102161.25;2190704;39;115634;-55
2021/06/23 05:06:44;;;;;;;;;;;;;;;20.79;48.95;102163.50;2189316;39;115939;-54
2021/06/23 05:08:16;;;;;;;;;;;;;;;20.82;48.77;102165.75;2194801;39;115648;-54
2021/06/23 05:09:47;;;;;;;;;;;;;;;20.85;48.87;102163.22;2196802;39;116169;-54
2021/06/23 05:11:19;;;;;;;;;;;;;;;20.90;48.29;102165.19;2197830;39;115831;-54
2021/06/23 05:12:50;;;;;;;;;;;;;;;20.94;48.58;102162.69;2198770;39;115599;-54
2021/06/23 05:14:22;;;;;;;;;;;;;;;20.97;47.58;102164.91;2197657;39;115953;-54
2021/06/23 05:15:56;;;;;;;;;;;;;;;20.99;48.11;102168.25;2195492;39;116263;-54
2021/06/23 05:17:28;;;;;;;;;;;;;;;21.02;48.32;102170.53;2196151;39;115973;-54
2021/06/23 05:19:00;;;;;;;;;;;;;;;21.05;47.99;102169.97;2198275;39;116274;-55
2021/06/23 05:20:32;;;;;;;;;;;;;;;21.09;48.09;102176.69;2196812;39;115497;-54
2021/06/23 05:22:04;;;;;;;;;;;;;;;21.11;48.16;102174.47;2191138;39;116013;-54
2021/06/23 05:23:36;;;;;;;;;;;;;;;21.14;47.90;102179.53;2185410;39;115745;-54
2021/06/23 05:25:08;;;;;;;;;;;;;;;21.16;47.96;102175.34;2199136;39;115638;-54
2021/06/23 05:26:40;;;;;;;;;;;;;;;21.20;47.79;102169.97;2199298;39;114000;-53
2021/06/23 05:28:11;;;;;;;;;;;;;;;21.22;47.81;102177.00;2199492;39;113935;-55
2021/06/23 05:29:43;;;;;;;;;;;;;;;21.26;48.12;102169.69;2191701;39;113745;-54
2021/06/23 05:31:14;;;;;;;;;;;;;;;21.30;48.13;102178.41;2198058;39;113617;-54
2021/06/23 05:32:46;;;;;;;;;;;;;;;21.32;47.94;102181.75;2193984;39;114003;-54
2021/06/23 05:34:18;;;;;;;;;;;;;;;21.36;47.70;102180.06;2196427;39;113883;-54
2021/06/23 05:35:49;;;;;;;;;;;;;;;21.38;47.97;102179.78;2199558;39;114483;-54
2021/06/23 05:37:21;;;;;;;;;;;;;;;21.43;47.63;102191.03;2197047;39;113639;-54
2021/06/23 05:38:53;;;;;;;;;;;;;;;21.46;47.79;102190.44;2197471;39;113747;-54
2021/06/23 05:40:25;;;;;;;;;;;;;;;21.49;48.04;102181.44;2190698;39;114004;-54
2021/06/23 05:41:58;;;;;;;;;;;;;;;21.51;48.05;102180.03;2195400;39;114097;-54
2021/06/23 05:43:29;;;;;;;;;;;;;;;21.54;47.74;102187.91;2196499;39;113574;-54
2021/06/23 05:45:02;;;;;;;;;;;;;;;21.57;47.86;102178.91;2195902;39;113917;-55
2021/06/23 05:46:33;;;;;;;;;;;;;;;21.61;48.02;102185.66;2197964;39;114040;-54
2021/06/23 05:48:05;;;;;;;;;;;;;;;21.68;46.87;102188.13;2198081;39;114806;-53
2021/06/23 05:49:37;;;;;;;;;;;;;;;21.69;47.15;102184.19;2195558;39;114018;-54
2021/06/23 05:51:09;;;;;;;;;;;;;;;21.72;46.53;102187.28;2193310;39;113599;-54
2021/06/23 05:52:41;;;;;;;;;;;;;;;21.73;46.84;102188.97;2199047;39;115205;-54
2021/06/23 05:54:13;;;;;;;;;;;;;;;21.76;46.75;102195.16;2196537;39;115531;-54
2021/06/23 05:55:45;;;;;;;;;;;;;;;21.79;47.09;102194.59;2196559;39;115410;-54
2021/06/23 05:57:16;;;;;;;;;;;;;;;21.80;46.58;102188.69;2188667;39;113909;-54
2021/06/23 05:58:48;;;;;;;;;;;;;;;21.83;46.76;102190.06;2200269;39;115008;-54
2021/06/23 06:00:21;;;;;;;;;;;;;;;21.84;46.62;102177.69;2194426;39;114037;-54
2021/06/23 06:01:53;;;;;;;;;;;;;;;21.86;46.62;102192.28;2195047;39;114733;-54
2021/06/23 06:03:25;;;;;;;;;;;;;;;21.88;46.61;102185.25;2195593;39;115159;-54
2021/06/23 06:04:57;;;;;;;;;;;;;;;21.90;46.59;102182.16;2195308;39;115060;-54
2021/06/23 06:06:29;;;;;;;;;;;;;;;21.92;46.45;102182.72;2190307;39;114982;-55
2021/06/23 06:08:01;;;;;;;;;;;;;;;21.94;46.38;102184.13;2196825;39;115083;-54
2021/06/23 06:09:32;;;;;;;;;;;;;;;21.96;46.27;102178.22;2195549;39;115399;-54
2021/06/23 06:11:04;;;;;;;;;;;;;;;21.97;46.25;102174.28;2198523;39;115668;-54
2021/06/23 06:12:36;;;;;;;;;;;;;;;21.99;46.38;102174.81;2199144;39;116308;-54
2021/06/23 06:14:08;;;;;;;;;;;;;;;21.99;45.83;102175.66;2198907;39;115675;-54
2021/06/23 06:15:39;;;;;;;;;;;;;;;22.00;46.21;102176.50;2192022;39;115824;-54
2021/06/23 06:17:11;;;;;;;;;;;;;;;22.02;45.88;102182.69;2196299;39;116091;-54
2021/06/23 06:18:45;;;;;;;;;;;;;;;22.02;46.05;102177.91;2199024;39;115547;-54
2021/06/23 06:20:16;;;;;;;;;;;;;;;22.04;45.90;102183.25;2199014;39;115688;-54
2021/06/23 06:21:48;;;;;;;;;;;;;;;22.04;46.13;102180.44;2199025;39;116161;-54
2021/06/23 06:23:20;;;;;;;;;;;;;;;22.06;46.01;102183.81;2186046;39;115630;-54
2021/06/23 06:24:52;;;;;;;;;;;;;;;22.05;46.13;102193.38;2190494;39;115472;-54
2021/06/23 06:26:23;;;;;;;;;;;;;;;22.06;45.96;102183.81;2196296;39;117971;-54
2021/06/23 06:27:55;;;;;;;;;;;;;;;22.08;46.04;102184.34;2198623;39;115756;-54
2021/06/23 06:29:27;;;;;;;;;;;;;;;22.08;46.47;102192.78;2186647;39;116100;-57
2021/06/23 06:30:58;;;;;;;;;;;;;;;22.09;46.24;102184.06;2193586;39;113887;-54
2021/06/23 06:32:30;;;;;;;;;;;;;;;22.09;46.32;102188.84;2191997;39;113784;-54
2021/06/23 06:34:02;;;;;;;;;;;;;;;22.10;45.99;102194.19;2196049;39;113892;-54
2021/06/23 06:35:34;;;;;;;;;;;;;;;22.10;45.89;102188.56;2200320;39;113654;-54
2021/06/23 06:37:06;;;;;;;;;;;;;;;22.11;45.98;102193.06;2197452;39;113704;-54
2021/06/23 06:38:38;;;;;;;;;;;;;;;22.11;45.88;102187.44;2191347;39;113890;-54
2021/06/23 06:40:10;;;;;;;;;;;;;;;22.12;45.71;102194.75;2197789;39;113672;-54
2021/06/23 06:41:42;;;;;;;;;;;;;;;22.13;45.78;102192.75;2197038;39;113906;-54
2021/06/23 06:43:13;;;;;;;;;;;;;;;22.13;45.69;102192.75;2197557;39;113870;-54
2021/06/23 06:44:45;;;;;;;;;;;;;;;22.13;45.79;102190.78;2199222;39;113736;-54
2021/06/23 06:46:17;;;;;;;;;;;;;;;22.14;45.56;102184.03;2196677;39;113809;-54
2021/06/23 06:47:49;;;;;;;;;;;;;;;22.16;45.98;102195.88;2196621;39;114853;-55
2021/06/23 06:49:20;;;;;;;;;;;;;;;22.15;45.69;102194.19;2194971;39;113830;-54
2021/06/23 06:50:52;;;;;;;;;;;;;;;22.16;45.63;102200.66;2196569;39;113902;-54
2021/06/23 06:52:24;;;;;;;;;;;;;;;22.15;44.87;102199.81;2190452;39;114143;-54
2021/06/23 06:53:56;;;;;;;;;;;;;;;22.15;44.73;102198.97;2193845;39;115216;-54
2021/06/23 06:55:27;;;;;;;;;;;;;;;22.14;44.48;102192.50;2196034;39;113920;-54
2021/06/23 06:56:59;;;;;;;;;;;;;;;22.13;43.84;102195.59;2196736;39;115350;-54
2021/06/23 06:58:31;;;;;;;;;;;;;;;22.11;44.23;102207.16;2192355;39;115064;-54
2021/06/23 07:00:04;;;;;;;;;;;;;;;22.11;43.67;102203.50;2195613;39;115124;-53
2021/06/23 07:01:35;;;;;;;;;;;;;;;22.09;43.46;102205.75;2195261;39;114740;-54
2021/06/23 07:03:08;;;;;;;;;;;;;;;22.09;43.46;102208.56;2195843;39;115239;-54
2021/06/23 07:04:40;;;;;;;;;;;;;;;22.08;43.71;102198.41;2188328;39;114930;-54
2021/06/23 07:06:11;;;;;;;;;;;;;;;22.10;43.45;102202.66;2192977;39;115080;-55
2021/06/23 07:07:43;;;;;;;;;;;;;;;22.07;43.03;102197.59;2189374;39;114995;-54
2021/06/23 07:09:15;;;;;;;;;;;;;;;22.06;43.32;102201.53;2196152;39;115057;-54
2021/06/23 07:10:47;;;;;;;;;;;;;;;22.08;43.20;102204.03;2190869;39;114768;-54
2021/06/23 07:12:19;;;;;;;;;;;;;;;22.07;43.10;102206.06;2197036;39;115546;-54
2021/06/23 07:13:50;;;;;;;;;;;;;;;22.09;43.21;102208.56;2197475;39;114810;-54
2021/06/23 07:15:22;;;;;;;;;;;;;;;22.10;43.78;102201.81;2187968;39;115939;-54
2021/06/23 07:16:54;;;;;;;;;;;;;;;22.13;44.28;102209.66;2187542;39;114611;-54
2021/06/23 07:18:26;;;;;;;;;;;;;;;22.04;43.09;102202.94;2196635;39;115509;-54
2021/06/23 07:19:57;;;;;;;;;;;;;;;21.99;42.83;102203.81;2198927;39;115664;-54
2021/06/23 07:21:29;;;;;;;;;;;;;;;21.79;41.02;102198.25;2192032;39;115600;-54
2021/06/23 07:23:01;;;;;;;;;;;;;;;21.76;40.85;102207.22;2196110;39;115470;-54
2021/06/23 07:24:33;;;;;;;;;;;;;;;21.74;41.81;102204.72;2199050;39;115642;-54
2021/06/23 07:26:04;;;;;;;;;;;;;;;21.83;42.07;102199.34;2198694;39;114560;-53
2021/06/23 07:27:36;;;;;;;;;;;;;;;21.85;42.64;102201.88;2191458;39;115520;-53
2021/06/23 07:29:08;;;;;;;;;;;;;;;21.86;42.75;102197.91;2196506;39;114920;-54
2021/06/23 07:30:44;;;;;;;;;;;;;;;21.89;43.16;102195.41;2198841;39;115542;-55
2021/06/23 07:32:32;;;;;;;;;;;;;;;21.90;43.29;102199.03;2192271;39;115832;-54
2021/06/23 07:37:14;;;;;;;;;;;;;;;21.91;43.75;102195.94;2195569;39;114033;-54
2021/06/23 07:38:46;;;;;;;;;;;;;;;21.91;44.02;102198.75;2197333;39;114714;-54
2021/06/23 07:40:20;;;;;;;;;;;;;;;21.91;44.22;102203.53;2197403;39;113858;-54
2021/06/23 07:41:52;;;;;;;;;;;;;;;21.92;44.21;102205.22;2193175;39;114241;-54
2021/06/23 07:43:24;;;;;;;;;;;;;;;21.92;44.21;102206.06;2194474;39;113835;-54
2021/06/23 07:44:58;;;;;;;;;;;;;;;21.92;44.33;102200.44;2195788;39;114065;-54
2021/06/23 07:46:34;;;;;;;;;;;;;;;21.93;44.54;102202.16;2184857;39;113913;-55
2021/06/23 07:48:06;;;;;;;;;;;;;;;21.93;44.78;102212.56;2191648;39;113647;-54
2021/06/23 07:49:40;;;;;;;;;;;;;;;21.95;45.00;102211.16;2195411;39;114113;-54
2021/06/23 07:51:16;;;;;;;;;;;;;;;21.96;44.79;102207.22;2197521;39;114197;-54